Nebr City, Nebraska
Current Conditions -  °F | °C
As of 11:35 AM on Tuesday 21 Oct 2014 (Local Time) from KAFK Reporting Station
Clear Clear  
Wind Chill: 64°   Ceiling: Unl
Heat Index: 64°   Visibility: 10mi
Dew Point: 37°   Wind: 3mph
Humidity: 36%   Direction: 170°S
Pressure: 30.13"   Gusts: NA
Location:  40.6534°N, 95.8738°W
Report Text: KAFK 211635Z AUTO 17003KT 10SM CLR 18/03 A3013 RMK AO2 T01760025
Loading
Personal Weather Stations






























Interactive Weather Map
Tropical Storm Tracking
New forecast layout! Learn more

10-Day Weather Forecast

Advertisements
Track Severe Weather on mobile